Terminal Aerodrome Forecast
Issued by NWS

Home | Current Version | Previous Version | Text Only | Print | Product List | Glossary Off
Versions: 1 2 3 4 5 6 7 8 9 10 11 12 13 14 15 16 17 18 19 20 21 22 23 24 25 26 27 28 29 30 31 32 33

000
FTUS43 KLOT 201120
TAFORD
TAF
KORD 201120Z 2012/2118 05006KT P6SM BKN120
     FM201400 06011KT P6SM SCT060 BKN090
      TEMPO 2019/2021 -SHRA BKN050
     FM210000 VRB04KT P6SM BKN060
     FM211400 30010KT P6SM SCT120=

USA.gov is the U.S. government's official web portal to all federal, state and local government web resources and services.